Terminal Aerodrome Forecast
Issued by NWS Dallas/Fort Worth, TX

Home | Current Version | Previous Version | Text Only | Print | Product List | Glossary On
Versions: 1 2 3 4 5 6 7 8 9 10 11 12 13 14 15 16 17 18 19 20 21 22 23 24 25 26 27 28 29 30 31 32 33
000
FTUS44 KFWD 012339
TAFACT
TAF
KACT 012339Z 0200/0224 36011KT 6SM BR OVC007
     FM020100 36012KT 5SM -RA BR OVC006
     FM020400 35010KT 3SM -RA BR OVC005
      TEMPO 0208/0212 1SM -DZ OVC003
     FM021800 01008KT 1SM BR OVC006=

USA.gov is the U.S. government's official web portal to all federal, state and local government web resources and services.